Terminal Aerodrome Forecast
Issued by NWS

Home | Current Version | Previous Version | Text Only | Print | Product List | Glossary On
Versions: 1 2 3 4 5 6 7 8 9 10 11 12 13
000
FTUS41 KLWX 282335
TAFMTN
TAF
KMTN 282335Z 0100/0124 15004KT P6SM SCT100
     FM010500 00000KT P6SM BKN100
     FM011400 VRB03KT 5SM -SN BR BKN035 OVC060
     FM011700 18005KT 3SM -FZRASNPL BR SCT008 OVC030
     FM012100 16006KT 4SM -FZRA BR BKN010 OVC020
      AMD NOT SKED 0102/0112=

USA.gov is the U.S. government's official web portal to all federal, state and local government web resources and services.